Ordway, Colorado
Current Conditions -  °F | °C
As of 2:53 AM on Friday 28 Nov 2014 (Local Time) from KLHX Reporting Station
Clear Clear  
Wind Chill: 40°   Ceiling: Unl
Heat Index: 40°   Visibility: 10mi
Dew Point: 22°   Wind: 3mph
Humidity: 49%   Direction: 210°SSW
Pressure: 30.05"   Gusts: NA
Location:  38.22°N, 103.76°W
Report Text: KLHX 280953Z AUTO 21003KT 10SM CLR 04/M06 A3005 RMK AO2 SLP148 T00441056
Loading
Personal Weather Stations






























Interactive Weather Map New forecast layout! Learn more

10-Day Weather Forecast

Advertisements
Track Severe Weather on mobile